Time;durP1;ratioP1;P1;durP2;ratioP2;P2;SDS_P1;SDS_P2;PMS_P1;PMS_P2;Temp;Humidity;BMP_temperature;BMP_pressure;BME280_temperature;BME280_humidity;BME280_pressure;Samples;Min_cycle;Max_cycle;Signal;HPM_P1;HPM_P2
2022/09/23 00:00:23;;;;;;;23.50;20.38;;;;;;;6.71;100.00;101619.06;12880365;22;20000;-88
2022/09/23 00:05:23;;;;;;;27.15;19.75;;;;;;;5.92;100.00;101537.75;12862984;22;20000;-90
2022/09/23 00:10:26;;;;;;;24.83;19.58;;;;;;;6.31;100.00;101599.06;12916598;22;20380;-88
2022/09/23 00:15:28;;;;;;;23.17;19.92;;;;;;;7.46;100.00;101756.59;12897609;22;20166;-88
2022/09/23 00:20:30;;;;;;;25.48;20.42;;;;;;;6.09;100.00;101539.06;12890909;22;20014;-90
2022/09/23 00:25:31;;;;;;;21.60;17.77;;;;;;;6.00;100.00;101552.09;12891011;22;20008;-88
2022/09/23 00:30:32;;;;;;;24.77;19.60;;;;;;;7.39;100.00;101782.31;12863510;22;20012;-90
2022/09/23 00:35:33;;;;;;;22.70;20.08;;;;;;;7.08;100.00;101716.13;12875011;22;20384;-89
2022/09/23 00:40:35;;;;;;;23.48;19.65;;;;;;;6.93;100.00;101692.78;12874807;22;20012;-87
2022/09/23 00:45:35;;;;;;;22.15;19.73;;;;;;;7.20;100.00;101715.53;12875328;22;20031;-88
2022/09/23 00:50:37;;;;;;;22.02;18.58;;;;;;;5.67;100.00;101478.22;12894332;22;20007;-89
2022/09/23 00:55:43;;;;;;;23.92;18.80;;;;;;;5.92;100.00;101510.44;12924825;22;20335;-90
2022/09/23 01:00:45;;;;;;;24.80;19.17;;;;;;;6.50;100.00;101583.72;12864000;22;20078;-89
2022/09/23 01:05:46;;;;;;;26.23;19.42;;;;;;;5.63;100.00;101477.78;12891402;22;20022;-89
2022/09/23 01:11:09;;;;;;;23.92;19.50;;;;;;;7.74;100.00;101777.41;12874545;22;20004;-88
2022/09/23 01:16:33;;;;;;;21.35;18.95;;;;;;;5.91;100.00;101504.09;12877350;22;20022;-89
2022/09/23 01:21:43;;;;;;;24.95;19.70;;;;;;;6.62;100.00;101598.44;12890358;22;20027;-89
2022/09/23 01:26:55;;;;;;;26.35;19.40;;;;;;;7.01;100.00;101671.50;12940348;22;20003;-88
2022/09/23 01:32:16;;;;;;;24.83;20.13;;;;;;;5.61;100.00;101479.06;12884368;22;20027;-88
2022/09/23 01:37:37;;;;;;;23.85;20.13;;;;;;;7.20;100.00;101679.91;12943312;22;20022;-88
2022/09/23 01:43:03;;;;;;;25.58;20.77;;;;;;;6.34;100.00;101547.50;12911108;22;20063;-88
2022/09/23 01:48:22;;;;;;;22.27;18.58;;;;;;;6.91;100.00;101670.25;12893464;22;20484;-87
2022/09/23 01:53:29;;;;;;;24.30;20.83;;;;;;;6.23;100.00;101543.50;12882052;22;20038;-89
2022/09/23 01:58:30;;;;;;;26.45;20.05;;;;;;;7.41;100.00;101704.31;12906267;22;20082;-89
2022/09/23 02:03:48;;;;;;;24.13;20.80;;;;;;;7.63;100.00;101739.72;12970213;22;19999;-89
2022/09/23 02:08:55;;;;;;;21.25;18.95;;;;;;;6.72;100.00;101622.63;12896216;22;19995;-89
2022/09/23 02:14:19;;;;;;;21.77;19.20;;;;;;;5.61;100.00;101408.03;12904033;22;20022;-90
2022/09/23 02:19:40;;;;;;;21.45;18.58;;;;;;;7.03;100.00;101627.50;12923526;22;20023;-89
2022/09/23 02:24:41;;;;;;;20.45;18.30;;;;;;;5.94;100.00;101462.72;12909066;22;20019;-88
2022/09/23 02:30:02;;;;;;;24.73;19.67;;;;;;;6.62;100.00;101595.72;12881226;22;20082;-87
2022/09/23 02:35:15;;;;;;;23.35;19.02;;;;;;;5.87;100.00;101423.63;12886923;22;20018;-90
2022/09/23 02:40:22;;;;;;;22.55;19.20;;;;;;;6.63;100.00;101561.81;12901072;22;20079;-90
2022/09/23 02:45:25;;;;;;;23.15;19.10;;;;;;;6.05;100.00;101447.59;12913785;22;20054;-90
2022/09/23 02:50:29;;;;;;;19.92;17.83;;;;;;;5.56;100.00;101366.84;12895812;22;20047;-90
2022/09/23 02:55:31;;;;;;;25.40;19.35;;;;;;;6.66;100.00;101558.66;12820550;22;20020;-90
2022/09/23 03:00:41;;;;;;;21.23;17.77;;;;;;;6.87;100.00;101617.81;12865224;22;20004;-90
2022/09/23 03:05:49;;;;;;;23.17;18.73;;;;;;;5.94;100.00;101472.81;12906382;22;20016;-90
2022/09/23 03:10:55;;;;;;;19.60;17.50;;;;;;;7.24;100.00;101673.78;12887743;22;20130;-90
2022/09/23 03:16:33;;;;;;;22.50;18.77;;;;;;;7.19;100.00;101670.88;12940115;22;20029;-90
2022/09/23 03:21:55;;;;;;;20.63;17.65;;;;;;;4.52;100.00;101246.16;12799350;23;20051;-89
2022/09/23 03:26:57;;;;;;;22.48;18.42;;;;;;;5.03;100.00;101357.50;12771992;23;20589;-90
2022/09/23 03:31:58;;;;;;;25.80;19.20;;;;;;;5.98;100.00;101501.44;12815287;23;20012;-90
2022/09/23 03:37:22;;;;;;;23.52;20.05;;;;;;;6.19;100.00;101520.38;12828397;23;20023;-89
2022/09/23 03:42:28;;;;;;;22.40;19.90;;;;;;;5.61;100.00;101446.28;12787007;23;20015;-90
2022/09/23 03:47:30;;;;;;;24.30;19.45;;;;;;;4.98;100.00;101332.75;12817618;23;20008;-89
2022/09/23 03:52:32;;;;;;;24.38;19.90;;;;;;;5.98;100.00;101545.16;12801456;23;20391;-87
2022/09/23 03:57:34;;;;;;;26.27;21.02;;;;;;;6.47;100.00;101617.81;12779267;23;20000;-90
2022/09/23 04:02:35;;;;;;;33.70;20.08;;;;;;;4.95;100.00;101373.25;12782625;23;20020;-90
2022/09/23 04:07:38;;;;;;;23.95;19.50;;;;;;;5.36;100.00;101422.28;12796569;23;20012;-89
2022/09/23 04:12:40;;;;;;;24.83;20.83;;;;;;;5.16;100.00;101405.84;12811534;23;20079;-89
2022/09/23 04:17:40;;;;;;;31.02;21.70;;;;;;;5.86;100.00;101502.00;12781866;23;20020;-89
2022/09/23 04:22:41;;;;;;;25.90;20.52;;;;;;;4.98;100.00;101362.75;12802933;23;20120;-89
2022/09/23 04:27:42;;;;;;;23.80;19.70;;;;;;;5.39;100.00;101449.16;12809348;23;20016;-88
2022/09/23 04:32:43;;;;;;;25.55;20.77;;;;;;;5.19;100.00;101399.16;12835085;23;20382;-87
2022/09/23 04:37:46;;;;;;;27.92;21.10;;;;;;;5.19;100.00;101408.16;12836038;23;20012;-86
2022/09/23 04:42:49;;;;;;;25.15;21.23;;;;;;;5.12;100.00;101398.25;12851342;22;20334;-89
2022/09/23 04:47:52;;;;;;;23.92;20.05;;;;;;;6.08;100.00;101562.00;12813312;23;20093;-90
2022/09/23 04:52:52;;;;;;;23.98;20.65;;;;;;;4.73;100.00;101362.44;12858222;23;20373;-88
2022/09/23 04:57:53;;;;;;;23.00;20.40;;;;;;;5.41;100.00;101463.44;12833451;23;20008;-88
2022/09/23 05:02:54;;;;;;;24.67;21.02;;;;;;;6.09;100.00;101573.78;12816455;23;20351;-90
2022/09/23 05:07:55;;;;;;;27.33;20.80;;;;;;;5.04;100.00;101372.84;12831379;23;20004;-87
2022/09/23 05:12:57;;;;;;;26.45;21.35;;;;;;;6.12;100.00;101584.28;12828862;23;20100;-87
2022/09/23 05:17:58;;;;;;;27.30;21.33;;;;;;;5.28;100.00;101397.88;12821617;22;20016;-90
2022/09/23 05:23:01;;;;;;;26.83;20.05;;;;;;;5.61;100.00;101473.59;12906314;22;20007;-91
2022/09/23 05:28:02;;;;;;;28.98;20.08;;;;;;;4.78;100.00;101321.78;12897955;22;20426;-88
2022/09/23 05:33:03;;;;;;;24.63;18.73;;;;;;;4.83;100.00;101321.16;12900193;22;20016;-91
2022/09/23 05:38:03;;;;;;;24.48;18.67;;;;;;;6.80;100.00;101650.66;12868665;22;20064;-88
2022/09/23 05:43:04;;;;;;;21.80;19.02;;;;;;;5.51;100.00;101418.53;12841562;22;20010;-91
2022/09/23 05:48:05;;;;;;;20.48;18.17;;;;;;;5.29;100.00;101375.00;12898551;22;20084;-91
2022/09/23 05:53:05;;;;;;;24.80;18.52;;;;;;;5.02;100.00;101344.94;12872863;22;20077;-91
2022/09/23 05:58:06;;;;;;;21.88;18.25;;;;;;;4.93;100.00;101313.41;12871604;22;20011;-88
2022/09/23 06:03:13;;;;;;;22.63;18.60;;;;;;;5.88;100.00;101424.44;12874786;22;20039;-88
2022/09/23 06:08:13;;;;;;;23.05;18.75;;;;;;;6.76;100.00;101548.13;12876074;22;20568;-91
2022/09/23 06:13:17;;;;;;;21.40;17.75;;;;;;;6.07;100.00;101402.59;12887158;22;20035;-91
2022/09/23 06:18:17;;;;;;;20.65;16.20;;;;;;;6.11;100.00;101404.91;12886325;22;20439;-91
2022/09/23 06:23:18;;;;;;;18.88;16.42;;;;;;;6.14;100.00;101350.66;12886919;22;20035;-91
2022/09/23 06:28:19;;;;;;;18.27;15.07;;;;;;;7.45;100.00;101557.63;12886665;22;20023;-91
2022/09/23 06:33:19;;;;;;;16.60;14.45;;;;;;;7.53;100.00;101476.25;12887325;22;20012;-91
2022/09/23 06:38:20;;;;;;;20.85;13.45;;;;;;;8.72;100.00;101619.13;12886451;22;20000;-91
2022/09/23 06:43:21;;;;;;;14.45;12.02;;;;;;;7.68;100.00;101373.47;12892304;22;20020;-91
2022/09/23 06:48:23;;;;;;;15.40;11.88;;;;;;;8.65;100.00;101502.00;12876223;22;20465;-91
2022/09/23 06:53:24;;;;;;;15.25;10.63;;;;;;;8.39;100.00;101422.63;12888349;22;20023;-91
2022/09/23 06:58:25;;;;;;;14.02;9.90;;;;;;;8.62;100.00;101472.25;12889706;22;20013;-88
2022/09/23 07:03:26;;;;;;;12.07;9.88;;;;;;;9.37;100.00;101537.13;12890132;22;20004;-92
2022/09/23 07:08:27;;;;;;;11.90;10.07;;;;;;;8.84;100.00;101419.66;12890155;22;20007;-91
2022/09/23 07:13:28;;;;;;;11.43;9.90;;;;;;;9.89;100.00;101559.50;12913541;22;20042;-88
2022/09/23 07:18:32;;;;;;;13.30;10.43;;;;;;;9.91;100.00;101509.75;12885280;22;20027;-91
2022/09/23 07:23:33;;;;;;;14.38;10.32;;;;;;;9.79;100.00;101456.63;12914943;22;20093;-89
2022/09/23 07:28:35;;;;;;;14.30;9.98;;;;;;;9.32;100.00;101363.84;12889551;22;20104;-93
2022/09/23 07:33:36;;;;;;;12.75;9.40;;;;;;;10.07;100.00;101443.06;12915693;22;20042;-91
2022/09/23 07:38:37;;;;;;;12.70;9.98;;;;;;;10.43;100.00;101467.88;12914909;22;20032;-87
2022/09/23 07:43:38;;;;;;;11.50;8.40;;;;;;;10.27;100.00;101409.72;12912118;22;20000;-87
2022/09/23 07:48:39;;;;;;;16.08;9.18;;;;;;;10.75;100.00;101443.56;12914497;22;20088;-92
2022/09/23 07:53:39;;;;;;;13.20;10.00;;;;;;;11.37;100.00;101525.66;12889509;22;20012;-92
2022/09/23 07:58:40;;;;;;;14.05;9.27;;;;;;;10.66;100.00;101374.25;12889333;22;20150;-92
2022/09/23 08:03:40;;;;;;;13.25;8.95;;;;;;;10.93;100.00;101422.47;12889132;22;20015;-92
2022/09/23 08:08:44;;;;;;;12.13;8.98;;;;;;;11.66;100.00;101532.03;12878392;22;20034;-91
2022/09/23 08:13:44;;;;;;;10.77;9.25;;;;;;;11.60;100.00;101518.38;12898437;22;20442;-91
2022/09/23 08:18:45;;;;;;;12.73;8.63;;;;;;;11.07;100.00;101427.44;12870901;22;20020;-91
2022/09/23 08:23:46;;;;;;;13.05;9.32;;;;;;;12.09;100.00;101554.63;12916849;22;20004;-91
2022/09/23 08:28:46;;;;;;;17.75;9.63;;;;;;;12.34;100.00;101553.44;12892386;22;20082;-91
2022/09/23 08:33:47;;;;;;;11.57;9.05;;;;;;;12.05;100.00;101514.81;12890450;22;20349;-91
2022/09/23 08:38:47;;;;;;;17.70;9.55;;;;;;;12.47;100.00;101564.16;12917905;22;20008;-92
2022/09/23 08:43:50;;;;;;;14.27;8.95;;;;;;;12.05;100.00;101504.66;12890297;22;20296;-92
2022/09/23 08:48:50;;;;;;;11.45;9.32;;;;;;;12.15;100.00;101490.16;12889086;22;19999;-84
2022/09/23 08:53:51;;;;;;;11.68;9.05;;;;;;;12.61;100.00;101565.50;12913406;22;20091;-85
2022/09/23 08:59:06;;;;;;;12.43;8.95;;;;;;;12.48;100.00;101516.09;12889092;22;20007;-88
2022/09/23 09:04:33;;;;;;;15.80;9.05;;;;;;;13.15;100.00;101576.00;12960827;22;20014;-89
2022/09/23 09:09:49;;;;;;;12.23;9.30;;;;;;;12.27;100.00;101421.91;12924621;22;20430;-86
2022/09/23 09:15:15;;;;;;;10.15;9.13;;;;;;;13.11;100.00;101542.50;12941461;22;20051;-86
2022/09/23 09:20:38;;;;;;;14.18;8.80;;;;;;;13.39;100.00;101523.25;12891059;22;20018;-90
2022/09/23 09:25:48;;;;;;;14.77;9.35;;;;;;;13.95;100.00;101550.72;12914313;22;20004;-91
2022/09/23 09:30:56;;;;;;;12.80;8.73;;;;;;;13.46;100.00;101438.97;12913806;22;20018;-91
2022/09/23 09:36:27;;;;;;;10.80;8.18;;;;;;;13.87;100.00;101480.06;12888121;22;20012;-89
2022/09/23 09:41:30;;;;;;;10.48;8.57;;;;;;;13.63;100.00;101449.94;12892585;22;20034;-92
2022/09/23 09:46:43;;;;;;;13.45;9.05;;;;;;;13.62;100.00;101404.03;12889425;22;20035;-92
2022/09/23 09:51:44;;;;;;;9.60;8.10;;;;;;;13.57;100.00;101375.47;12890947;22;20077;-92
2022/09/23 09:56:45;;;;;;;10.30;8.73;;;;;;;13.41;100.00;101321.94;12889965;22;20065;-91
2022/09/23 10:01:46;;;;;;;11.63;7.88;;;;;;;14.13;100.00;101459.81;12914351;22;20476;-90
2022/09/23 10:07:07;;;;;;;12.73;7.95;;;;;;;13.95;100.00;101417.84;12890016;22;20004;-91
2022/09/23 10:12:14;;;;;;;11.55;7.70;;;;;;;14.13;100.00;101436.84;12888854;22;20004;-91
2022/09/23 10:17:18;;;;;;;11.50;7.00;;;;;;;14.11;100.00;101423.25;12892028;22;20019;-87
2022/09/23 10:22:21;;;;;;;12.05;6.93;;;;;;;14.51;100.00;101457.06;12914995;22;20004;-86
2022/09/23 10:27:26;;;;;;;9.88;7.07;;;;;;;14.83;100.00;101450.66;12917817;22;20003;-87
2022/09/23 10:32:42;;;;;;;10.90;7.35;;;;;;;14.70;100.00;101435.34;12914878;22;20033;-87
2022/09/23 10:37:55;;;;;;;9.82;7.20;;;;;;;15.00;100.00;101434.66;12916655;22;20027;-87
2022/09/23 10:49:18;;;;;;;10.50;7.82;;;;;;;14.76;100.00;101417.63;12946163;22;20008;-86
2022/09/23 10:54:31;;;;;;;12.95;6.78;;;;;;;15.52;100.00;101505.88;12814520;22;20330;-86
2022/09/23 10:59:38;;;;;;;12.82;7.05;;;;;;;15.64;100.00;101500.06;12965995;22;20014;-90
2022/09/23 11:05:08;;;;;;;13.07;6.80;;;;;;;15.12;100.00;101388.09;12967588;22;20018;-91
2022/09/23 11:10:17;;;;;;;11.27;6.57;;;;;;;15.91;100.00;101452.69;12944604;22;20003;-94
2022/09/23 11:15:39;;;;;;;11.18;6.95;;;;;;;16.37;100.00;101487.13;12915835;22;20058;-89
2022/09/23 11:20:47;;;;;;;8.23;6.75;;;;;;;15.84;100.00;101437.41;12967659;22;20020;-91
2022/09/23 11:25:55;;;;;;;10.25;6.72;;;;;;;15.90;100.00;101426.03;12915507;22;20012;-88
2022/09/23 11:31:14;;;;;;;7.38;6.55;;;;;;;16.18;100.00;101496.03;12942687;22;20004;-86
2022/09/23 11:36:29;;;;;;;10.93;6.82;;;;;;;15.58;100.00;101412.34;12965694;22;20065;-85
2022/09/23 11:41:33;;;;;;;9.65;7.30;;;;;;;16.36;100.00;101507.72;12891743;22;20014;-86
2022/09/23 11:46:37;;;;;;;10.50;6.90;;;;;;;15.23;100.00;101311.31;12914992;22;19999;-87
2022/09/23 11:51:53;;;;;;;8.32;6.70;;;;;;;15.68;100.00;101356.84;12914014;22;20426;-87
2022/09/23 11:56:57;;;;;;;10.15;6.90;;;;;;;15.12;100.00;101237.53;12937802;22;20038;-87
2022/09/23 12:02:03;;;;;;;8.63;6.95;;;;;;;16.07;100.00;101391.59;12876310;22;20064;-88
2022/09/23 12:07:06;;;;;;;11.05;6.95;;;;;;;16.16;100.00;101378.81;12912637;22;20003;-87
2022/09/23 12:12:25;;;;;;;9.38;6.00;;;;;;;16.17;100.00;101407.44;12966029;22;20333;-87
2022/09/23 12:17:50;;;;;;;11.80;6.80;;;;;;;16.04;100.00;101353.25;12940014;22;20090;-87
2022/09/23 12:23:20;;;;;;;7.78;6.22;;;;;;;15.74;100.00;101282.78;12914350;22;20460;-86
2022/09/23 12:28:35;;;;;;;9.30;6.55;;;;;;;16.04;100.00;101325.50;12892874;22;20437;-87
2022/09/23 12:33:36;;;;;;;9.75;6.60;;;;;;;16.57;100.00;101373.16;12886770;22;20457;-87
2022/09/23 12:38:47;;;;;;;9.93;6.25;;;;;;;16.70;100.00;101405.94;12888502;22;20000;-86
2022/09/23 12:44:13;;;;;;;12.30;6.40;;;;;;;16.93;100.00;101437.06;12875695;22;20012;-86
2022/09/23 12:49:22;;;;;;;9.25;6.45;;;;;;;15.78;100.00;101222.81;12964599;22;20053;-86
2022/09/23 12:54:23;;;;;;;8.48;5.85;;;;;;;16.90;100.00;101387.53;12939161;22;20015;-87
2022/09/23 12:59:26;;;;;;;10.10;6.95;;;;;;;16.77;100.00;101368.66;12888542;22;20007;-86
2022/09/23 13:10:13;;;;;;;7.78;6.22;;;;;;;16.24;100.00;101339.34;12897067;22;20003;-86
2022/09/23 13:15:30;;;;;;;7.85;6.50;;;;;;;16.51;100.00;101377.06;12915011;22;20015;-86
2022/09/23 13:20:33;;;;;;;10.23;6.72;;;;;;;16.40;100.00;101342.09;12863856;22;20014;-87
2022/09/23 13:25:37;;;;;;;12.60;7.22;;;;;;;16.28;100.00;101275.72;12885183;22;20007;-85
2022/09/23 13:30:46;;;;;;;11.80;6.00;;;;;;;16.41;100.00;101272.31;12889266;22;20024;-88
2022/09/23 13:35:51;;;;;;;11.15;5.43;;;;;;;16.16;100.00;101269.63;12887317;22;20476;-86
2022/09/23 13:40:57;;;;;;;11.55;5.82;;;;;;;16.26;100.00;101225.97;12914349;22;20018;-86
2022/09/23 13:45:58;;;;;;;8.23;5.33;;;;;;;16.88;100.00;101301.59;12888013;22;20471;-87
2022/09/23 13:50:58;;;;;;;9.77;5.78;;;;;;;15.86;100.00;101163.94;12891377;22;20079;-86
2022/09/23 13:56:06;;;;;;;7.43;5.50;;;;;;;16.33;100.00;101278.50;12891062;22;20011;-87
2022/09/23 14:01:07;;;;;;;8.55;6.03;;;;;;;17.03;100.00;101374.97;12917162;22;20004;-87
2022/09/23 14:06:13;;;;;;;8.23;5.85;;;;;;;15.85;100.00;101217.78;12916778;22;20377;-87
2022/09/23 14:11:21;;;;;;;11.27;6.87;;;;;;;16.51;100.00;101357.63;12891833;22;20007;-87
2022/09/23 14:16:25;;;;;;;9.40;6.60;;;;;;;15.26;100.00;101202.59;12916636;22;20362;-87
2022/09/23 14:21:38;;;;;;;7.55;6.03;;;;;;;16.31;100.00;101358.53;12916745;22;20010;-87
2022/09/23 14:26:39;;;;;;;10.43;6.20;;;;;;;16.22;100.00;101357.41;12917668;22;20011;-87
2022/09/23 14:31:40;;;;;;;9.95;7.10;;;;;;;15.66;100.00;101302.75;12914415;22;20007;-86
2022/09/23 14:42:00;;;;;;;11.82;6.90;;;;;;;15.49;100.00;101270.53;12922568;22;20082;-89
2022/09/23 14:47:00;;;;;;;9.82;6.78;;;;;;;15.36;100.00;101243.38;12891165;22;20046;-87
2022/09/23 14:52:05;;;;;;;11.05;6.90;;;;;;;15.01;100.00;101217.28;12874945;22;20023;-89
2022/09/23 14:57:22;;;;;;;8.93;7.15;;;;;;;16.00;100.00;101385.47;12832175;22;20012;-89
2022/09/23 15:02:37;;;;;;;13.70;7.82;;;;;;;14.72;100.00;101212.25;12935303;22;19999;-95
2022/09/23 15:07:37;;;;;;;11.30;7.78;;;;;;;14.63;100.00;101208.31;12892695;22;20008;-94
2022/09/23 15:12:44;;;;;;;11.60;8.63;;;;;;;15.00;100.00;101322.91;12879670;22;20019;-94
2022/09/23 15:17:45;;;;;;;15.02;9.60;;;;;;;13.77;100.00;101140.44;12916884;22;20064;-92
2022/09/23 15:22:50;;;;;;;16.27;10.57;;;;;;;14.86;100.00;101336.44;12875462;22;20097;-91
2022/09/23 15:28:11;;;;;;;12.73;10.13;;;;;;;15.24;100.00;101378.72;12892217;22;20031;-94
2022/09/23 15:33:13;;;;;;;12.40;10.70;;;;;;;13.93;100.00;101214.13;12967189;22;20422;-95
2022/09/23 15:38:16;;;;;;;12.80;9.90;;;;;;;13.69;100.00;101177.75;12863757;22;20373;-95
2022/09/23 15:43:18;;;;;;;16.48;10.68;;;;;;;13.49;100.00;101183.16;12876314;22;20000;-93
2022/09/23 15:48:31;;;;;;;16.17;12.18;;;;;;;14.40;100.00;101294.66;12900785;22;20003;-92
2022/09/23 15:53:42;;;;;;;;;;;;;;;;;;;;;
2022/09/23 15:58:46;;;;;;;19.08;13.18;;;;;;;13.55;100.00;101192.31;12902597;22;20383;-86
2022/09/23 16:03:46;;;;;;;16.92;13.90;;;;;;;12.90;100.00;101115.78;12887045;22;20011;-88
2022/09/23 16:08:48;;;;;;;24.30;15.65;;;;;;;13.27;100.00;101224.69;12884439;22;20034;-89
2022/09/23 16:13:49;;;;;;;18.42;14.80;;;;;;;13.06;100.00;101180.31;12887444;22;20026;-86
2022/09/23 16:18:50;;;;;;;20.73;15.10;;;;;;;13.37;100.00;101241.41;12886975;22;20119;-88
2022/09/23 16:23:54;;;;;;;23.83;16.35;;;;;;;12.65;100.00;101130.22;12936457;22;20008;-88
2022/09/23 16:28:55;;;;;;;20.63;15.77;;;;;;;13.59;100.00;101293.03;12913741;22;20028;-88
2022/09/23 16:33:55;;;;;;;23.17;15.85;;;;;;;13.53;100.00;101279.16;12910364;22;20016;-86
2022/09/23 16:39:06;;;;;;;21.42;14.98;;;;;;;12.42;100.00;101130.53;12936502;22;20426;-89
2022/09/23 16:44:09;;;;;;;21.55;16.52;;;;;;;13.53;100.00;101317.88;12911245;22;20065;-87
2022/09/23 16:49:13;;;;;;;22.90;17.65;;;;;;;12.89;100.00;101229.34;12888298;22;20007;-87
2022/09/23 16:54:13;;;;;;;27.02;19.45;;;;;;;12.50;100.00;101183.34;12899217;22;20433;-88
2022/09/23 16:59:14;;;;;;;26.10;19.40;;;;;;;12.40;100.00;101160.31;12887007;22;20000;-88
2022/09/23 17:04:15;;;;;;;25.85;20.55;;;;;;;12.37;100.00;101178.25;12913038;22;20373;-87
2022/09/23 17:09:19;;;;;;;28.20;20.73;;;;;;;12.84;100.00;101259.69;12871635;22;20012;-87
2022/09/23 17:14:20;;;;;;;29.40;21.17;;;;;;;12.23;100.00;101158.47;12910895;22;20089;-86
2022/09/23 17:19:20;;;;;;;34.83;22.58;;;;;;;12.60;100.00;101271.03;12885395;22;20024;-87
2022/09/23 17:24:21;;;;;;;30.27;22.60;;;;;;;11.96;100.00;101152.91;12884927;22;20034;-87
2022/09/23 17:29:21;;;;;;;28.95;21.98;;;;;;;11.71;100.00;101125.81;12898714;22;20007;-92
2022/09/23 17:34:22;;;;;;;32.13;24.17;;;;;;;12.40;100.00;101232.13;12889173;22;20363;-91
2022/09/23 17:39:23;;;;;;;41.80;24.20;;;;;;;12.47;100.00;101243.81;12888073;22;20008;-91
2022/09/23 17:44:24;;;;;;;37.60;26.20;;;;;;;12.49;100.00;101252.69;12893036;22;20011;-88
2022/09/23 17:49:24;;;;;;;31.15;24.48;;;;;;;12.45;100.00;101270.84;12921820;22;20043;-83
2022/09/23 17:54:25;;;;;;;35.17;25.02;;;;;;;12.59;100.00;101305.28;12898708;22;20020;-89
2022/09/23 17:59:25;;;;;;;33.33;24.70;;;;;;;12.68;100.00;101317.53;12895442;22;20035;-89
2022/09/23 18:04:26;;;;;;;33.13;25.73;;;;;;;12.16;100.00;101232.38;12900371;22;20000;-88
2022/09/23 18:09:29;;;;;;;34.05;26.40;;;;;;;11.47;100.00;101125.19;12874185;22;20015;-89
2022/09/23 18:14:30;;;;;;;35.47;27.10;;;;;;;11.93;100.00;101199.50;12880327;22;20012;-86
2022/09/23 18:19:30;;;;;;;37.08;27.42;;;;;;;11.68;100.00;101164.97;12857488;23;20497;-86
2022/09/23 18:24:33;;;;;;;38.60;27.42;;;;;;;11.63;100.00;101175.91;12834178;23;20092;-86
2022/09/23 18:29:35;;;;;;;39.88;27.40;;;;;;;12.80;100.00;101371.84;12871107;23;20780;-86
2022/09/23 18:34:36;;;;;;;38.95;28.23;;;;;;;11.76;100.00;101189.34;12886679;22;20019;-89
2022/09/23 18:39:37;;;;;;;41.85;28.27;;;;;;;12.28;100.00;101279.19;12864456;23;20003;-86
2022/09/23 18:44:37;;;;;;;36.45;27.95;;;;;;;11.59;100.00;101160.94;12860115;22;20339;-89
2022/09/23 18:54:58;;;;;;;40.30;31.23;;;;;;;11.44;100.00;101167.91;12890183;23;20044;-85
2022/09/23 18:59:59;;;;;;;44.13;33.08;;;;;;;11.78;100.00;101236.81;12871476;23;20067;-86
2022/09/23 19:05:00;;;;;;;47.28;32.90;;;;;;;11.63;100.00;101195.19;12860000;23;20059;-86
2022/09/23 19:10:01;;;;;;;52.10;33.78;;;;;;;12.08;100.00;101299.06;12869135;23;20500;-87
2022/09/23 19:15:03;;;;;;;45.13;34.47;;;;;;;12.09;100.00;101292.44;12884028;22;20046;-89
2022/09/23 19:20:04;;;;;;;44.03;32.55;;;;;;;11.69;100.00;101210.75;12856738;23;20004;-86
2022/09/23 19:25:05;;;;;;;41.55;29.42;;;;;;;11.19;100.00;101159.25;12877589;23;20012;-87
2022/09/23 19:30:06;;;;;;;42.42;28.98;;;;;;;10.74;100.00;101099.56;12825980;23;20004;-88
2022/09/23 19:35:08;;;;;;;39.67;29.05;;;;;;;11.68;100.00;101225.63;12855631;23;20036;-89
2022/09/23 19:40:09;;;;;;;39.60;28.48;;;;;;;11.81;100.00;101285.94;12829605;23;20000;-86
2022/09/23 19:45:09;;;;;;;35.88;27.30;;;;;;;11.59;100.00;101238.16;12850535;22;20005;-87
2022/09/23 19:50:10;;;;;;;38.72;29.02;;;;;;;11.16;100.00;101154.22;12827241;23;20083;-87
2022/09/23 19:55:11;;;;;;;35.92;27.80;;;;;;;11.29;100.00;101185.06;12851400;23;20024;-86
2022/09/23 20:00:13;;;;;;;42.75;29.00;;;;;;;11.47;100.00;101205.16;12875692;23;20010;-86
2022/09/23 20:05:14;;;;;;;34.97;27.83;;;;;;;11.26;100.00;101179.19;12826017;23;20011;-86
2022/09/23 20:10:15;;;;;;;46.35;28.25;;;;;;;11.58;100.00;101234.56;12825636;23;20027;-86
2022/09/23 20:15:15;;;;;;;41.25;28.08;;;;;;;11.63;100.00;101253.13;12872941;22;20097;-84
2022/09/23 20:20:17;;;;;;;41.75;30.42;;;;;;;11.72;100.00;101254.38;12982904;22;20390;-85
2022/09/23 20:25:18;;;;;;;43.47;30.08;;;;;;;11.73;100.00;101209.13;12985075;22;20004;-85
2022/09/23 20:30:19;;;;;;;42.03;31.92;;;;;;;11.69;100.00;101221.78;12962874;22;20003;-84
2022/09/23 20:35:20;;;;;;;41.75;30.63;;;;;;;11.74;100.00;101230.13;12958904;22;20015;-88
2022/09/23 20:40:21;;;;;;;39.22;30.10;;;;;;;11.46;100.00;101211.78;12891570;22;20030;-89
2022/09/23 20:45:22;;;;;;;41.50;32.33;;;;;;;11.24;100.00;101187.72;12941907;22;20155;-86
2022/09/23 20:50:22;;;;;;;38.60;31.05;;;;;;;12.12;100.00;101294.72;12917524;22;19995;-88
2022/09/23 20:55:23;;;;;;;38.38;30.55;;;;;;;10.35;100.00;101033.41;12954132;22;20153;-88
2022/09/23 21:00:23;;;;;;;42.50;30.98;;;;;;;10.95;100.00;101122.78;12977005;22;20082;-87
2022/09/23 21:05:24;;;;;;;42.78;32.10;;;;;;;10.99;100.00;101121.19;12978905;22;20004;-90
2022/09/23 21:10:24;;;;;;;42.50;32.42;;;;;;;10.72;100.00;101068.69;12978537;22;20007;-87
2022/09/23 21:15:26;;;;;;;39.50;30.90;;;;;;;10.97;100.00;101088.38;12950818;22;20489;-86
2022/09/23 21:20:27;;;;;;;42.28;32.83;;;;;;;11.49;100.00;101183.69;12976577;22;20056;-88
2022/09/23 21:25:27;;;;;;;46.58;32.95;;;;;;;11.18;100.00;101122.56;12978473;22;20137;-88
2022/09/23 21:30:28;;;;;;;40.15;31.58;;;;;;;10.59;100.00;101015.63;12952645;22;20007;-87
2022/09/23 21:35:29;;;;;;;43.97;31.90;;;;;;;11.03;100.00;101098.38;12951302;22;20061;-86
2022/09/23 21:45:50;;;;;;;39.72;32.05;;;;;;;11.49;100.00;101198.31;13005550;22;20023;-88
2022/09/23 21:50:57;;;;;;;43.67;32.85;;;;;;;9.93;100.00;100924.53;12951613;22;19995;-87
2022/09/23 21:56:21;;;;;;;50.88;33.20;;;;;;;12.02;100.00;101269.72;12952271;22;20430;-87
2022/09/23 22:01:23;;;;;;;50.35;35.47;;;;;;;11.65;100.00;101204.06;12951560;22;20019;-87
2022/09/23 22:06:25;;;;;;;50.80;34.72;;;;;;;11.45;100.00;101177.88;12975170;22;20003;-87
2022/09/23 22:16:47;;;;;;;49.45;34.85;;;;;;;12.12;100.00;101275.38;12988295;22;20106;-86
2022/09/23 22:21:49;;;;;;;47.45;35.63;;;;;;;11.24;100.00;101115.22;12954684;22;20043;-88
2022/09/23 22:26:50;;;;;;;48.10;34.95;;;;;;;11.60;100.00;101181.94;12956816;22;20042;-85
2022/09/23 22:37:09;;;;;;;50.33;35.33;;;;;;;11.40;100.00;101174.19;12989497;22;20055;-87
2022/09/23 22:42:11;;;;;;;51.97;38.00;;;;;;;11.97;100.00;101300.00;12954549;22;20019;-87
2022/09/23 22:47:12;;;;;;;53.72;36.35;;;;;;;10.88;100.00;101092.66;12980788;22;20008;-87
2022/09/23 22:52:14;;;;;;;55.88;38.25;;;;;;;10.04;100.00;100947.53;12955284;22;19999;-87
2022/09/23 22:57:15;;;;;;;54.10;38.10;;;;;;;10.58;100.00;101063.50;12979925;22;20073;-87
2022/09/23 23:02:19;;;;;;;58.20;38.72;;;;;;;10.86;100.00;101125.13;12955391;22;20371;-87
2022/09/23 23:07:20;;;;;;;64.97;42.28;;;;;;;11.28;100.00;101138.44;12963113;22;20033;-87
2022/09/23 23:12:20;;;;;;;67.75;43.70;;;;;;;10.82;100.00;101090.91;12980619;22;20457;-87
2022/09/23 23:17:21;;;;;;;68.72;45.22;;;;;;;10.39;100.00;101020.81;12979163;22;20077;-87
2022/09/23 23:22:25;;;;;;;69.50;44.67;;;;;;;10.46;100.00;101004.97;12955146;22;20007;-87
2022/09/23 23:27:25;;;;;;;73.32;47.30;;;;;;;11.23;100.00;101132.88;12941848;22;20405;-87